createdAt,value
2019-04-18T00:01:20.297Z,13.10
2019-04-18T00:04:19.899Z,13.00
2019-04-18T00:07:01.163Z,12.90
2019-04-18T00:09:43.084Z,12.90
2019-04-18T00:12:24.694Z,12.80
2019-04-18T00:15:05.669Z,12.80
2019-04-18T00:17:46.436Z,12.70
2019-04-18T00:20:26.910Z,12.70
2019-04-18T00:23:07.993Z,12.60
2019-04-18T00:25:49.344Z,12.60
2019-04-18T00:28:29.879Z,12.60
2019-04-18T00:31:10.415Z,12.50
2019-04-18T00:34:08.901Z,12.50
2019-04-18T00:36:33.439Z,12.40
2019-04-18T00:39:14.520Z,12.40
2019-04-18T00:41:55.339Z,12.40
2019-04-18T00:44:36.504Z,12.40
2019-04-18T00:47:21.406Z,12.40
2019-04-18T00:49:59.662Z,12.40
2019-04-18T00:52:40.603Z,12.30
2019-04-18T00:55:20.904Z,12.30
2019-04-18T00:58:01.345Z,12.40
2019-04-18T01:00:42.131Z,12.30
2019-04-18T01:03:24.679Z,12.30
2019-04-18T01:06:05.608Z,12.30
2019-04-18T01:08:46.163Z,12.30
2019-04-18T01:11:27.250Z,12.30
2019-04-18T01:14:08.023Z,12.20
2019-04-18T01:16:48.763Z,12.20
2019-04-18T01:19:29.426Z,12.20
2019-04-18T01:22:14.340Z,12.20
2019-04-18T01:24:52.784Z,12.20
2019-04-18T01:27:33.419Z,12.20
2019-04-18T01:30:14.046Z,12.20
2019-04-18T01:33:00.427Z,12.30
2019-04-18T01:35:38.460Z,12.20
2019-04-18T01:38:19.361Z,12.30
2019-04-18T01:41:00.940Z,12.30
2019-04-18T01:46:27.536Z,12.30
2019-04-18T01:49:10.964Z,12.30
2019-04-18T01:51:54.274Z,12.30
2019-04-18T01:54:35.283Z,12.40
2019-04-18T01:57:17.631Z,12.40
2019-04-18T02:02:47.600Z,12.40
2019-04-18T02:13:49.075Z,12.40
2019-04-18T02:16:29.431Z,12.40
2019-04-18T02:21:55.363Z,12.40
2019-04-18T02:24:36.671Z,12.40
2019-04-18T02:27:25.705Z,12.50
2019-04-18T02:32:49.534Z,12.50
2019-04-18T02:38:15.341Z,12.50
2019-04-18T02:40:54.913Z,12.50
2019-04-18T02:43:36.005Z,12.40
2019-04-18T02:46:16.602Z,12.40
2019-04-18T02:48:58.242Z,12.40
2019-04-18T02:51:40.171Z,12.40
2019-04-18T02:54:20.739Z,12.50
2019-04-18T02:57:02.842Z,12.40
2019-04-18T03:05:40.446Z,12.40
2019-04-18T03:08:21.258Z,12.40
2019-04-18T03:11:02.443Z,12.40
2019-04-18T03:13:43.259Z,12.40
2019-04-18T03:16:25.322Z,12.40
2019-04-18T03:19:10.030Z,12.40
2019-04-18T03:21:48.253Z,12.40
2019-04-18T03:24:28.732Z,12.40
2019-04-18T03:27:09.748Z,12.40
2019-04-18T03:29:52.655Z,12.30
2019-04-18T03:32:36.746Z,12.30
2019-04-18T03:35:18.833Z,12.30
2019-04-18T03:37:58.390Z,12.30
2019-04-18T03:40:39.353Z,12.20
2019-04-18T03:43:19.939Z,12.20
2019-04-18T03:46:19.920Z,12.20
2019-04-18T03:49:01.195Z,12.20
2019-04-18T03:51:42.043Z,12.20
2019-04-18T03:54:22.391Z,12.20
2019-04-18T03:57:03.547Z,12.10
2019-04-18T03:59:44.499Z,12.10
2019-04-18T04:02:25.152Z,12.10
2019-04-18T04:05:05.963Z,12.00
2019-04-18T04:07:46.615Z,12.00
2019-04-18T04:10:27.190Z,12.00
2019-04-18T04:13:07.579Z,11.90
2019-04-18T04:15:50.480Z,11.90
2019-04-18T04:18:49.571Z,11.90
2019-04-18T04:21:30.973Z,11.90
2019-04-18T04:24:12.762Z,11.90
2019-04-18T04:26:53.163Z,11.90
2019-04-18T04:29:37.245Z,11.90
2019-04-18T04:32:16.063Z,11.80
2019-04-18T04:34:56.606Z,11.80
2019-04-18T04:37:38.444Z,11.80
2019-04-18T04:40:20.150Z,11.80
2019-04-18T04:43:00.475Z,11.80
2019-04-18T04:45:41.363Z,11.80
2019-04-18T04:48:28.790Z,11.80
2019-04-18T04:54:06.034Z,11.70
2019-04-18T04:57:05.949Z,11.70
2019-04-18T04:59:51.840Z,11.60
2019-04-18T05:02:32.920Z,11.60
2019-04-18T05:05:13.946Z,11.60
2019-04-18T05:07:56.906Z,11.60
2019-04-18T05:10:37.370Z,11.60
2019-04-18T05:13:18.543Z,11.50
2019-04-18T05:16:02.715Z,11.50
2019-04-18T05:18:41.927Z,11.50
2019-04-18T05:21:22.458Z,11.50
2019-04-18T05:24:03.127Z,11.50
2019-04-18T05:26:43.603Z,11.50
2019-04-18T05:32:10.619Z,11.50
2019-04-18T05:34:51.895Z,11.50
2019-04-18T05:37:32.517Z,11.50
2019-04-18T05:42:59.655Z,11.60
2019-04-18T05:45:42.700Z,11.60
2019-04-18T05:51:17.973Z,11.60
2019-04-18T05:57:04.806Z,11.80
2019-04-18T06:00:08.323Z,11.80
2019-04-18T06:05:50.560Z,11.90
2019-04-18T06:08:32.017Z,12.00
2019-04-18T06:50:35.057Z,12.90
2019-04-18T06:53:19.488Z,13.00
2019-04-18T06:55:58.259Z,13.10
2019-04-18T06:58:43.116Z,13.10
2019-04-18T07:01:21.338Z,13.10
2019-04-18T07:04:02.230Z,13.20
2019-04-18T07:06:44.108Z,13.30
2019-04-18T07:09:31.885Z,13.40
2019-04-18T07:12:19.299Z,13.40
2019-04-18T07:15:04.489Z,13.50
2019-04-18T07:17:43.762Z,13.60
2019-04-18T07:23:37.058Z,13.80
2019-04-18T07:26:17.479Z,13.80
2019-04-18T07:28:58.650Z,13.90
2019-04-18T07:31:40.951Z,14.00
2019-04-18T07:34:22.335Z,14.10
2019-04-18T07:37:03.558Z,14.20
2019-04-18T07:39:44.276Z,14.30
2019-04-18T07:42:24.574Z,14.40
2019-04-18T07:45:06.224Z,14.40
2019-04-18T07:47:49.925Z,14.50
2019-04-18T07:50:30.358Z,14.50
2019-04-18T07:53:11.937Z,14.60
2019-04-18T07:55:53.490Z,14.80
2019-04-18T07:58:34.299Z,14.80
2019-04-18T08:01:16.103Z,14.90
2019-04-18T08:04:11.862Z,15.00
2019-04-18T08:06:39.505Z,15.10
2019-04-18T08:09:21.035Z,15.20
2019-04-18T08:12:01.634Z,15.30
2019-04-18T08:14:42.229Z,15.40
2019-04-18T08:17:22.887Z,15.50
2019-04-18T08:20:03.868Z,15.60
2019-04-18T08:22:44.467Z,15.70
2019-04-18T08:25:31.245Z,15.80
2019-04-18T08:34:08.203Z,15.60
2019-04-18T08:36:49.341Z,15.70
2019-04-18T08:45:32.351Z,16.10
2019-04-18T08:48:15.160Z,16.20
2019-04-18T08:50:59.282Z,16.30
2019-04-18T08:56:38.064Z,16.60
2019-04-18T08:59:39.781Z,16.80
2019-04-18T09:02:22.359Z,17.00
2019-04-18T09:05:16.552Z,17.40
2019-04-18T09:07:51.150Z,17.60
2019-04-18T09:10:29.871Z,17.80
2019-04-18T09:13:18.350Z,17.90
2019-04-18T09:15:53.355Z,18.10
2019-04-18T09:21:24.170Z,18.50
2019-04-18T09:24:01.187Z,18.60
2019-04-18T09:26:42.138Z,18.50
2019-04-18T09:32:05.530Z,18.60
2019-04-18T09:34:46.383Z,18.50
2019-04-18T09:37:27.519Z,18.50
2019-04-18T09:40:08.786Z,18.60
2019-04-18T09:42:49.580Z,18.80
2019-04-18T09:45:35.473Z,19.10
2019-04-18T09:50:57.004Z,19.60
2019-04-18T09:56:24.637Z,19.90
2019-04-18T10:44:03.123Z,23.00
2019-04-18T10:46:44.897Z,23.10
2019-04-18T10:49:25.971Z,23.30
2019-04-18T10:52:06.489Z,23.20
2019-04-18T10:54:51.274Z,23.40
2019-04-18T10:57:29.899Z,23.70
2019-04-18T11:00:10.343Z,24.00
2019-04-18T11:02:50.683Z,24.10
2019-04-18T11:05:31.880Z,23.70
2019-04-18T11:08:12.986Z,23.60
2019-04-18T11:10:54.141Z,23.60
2019-04-18T11:13:33.631Z,24.00
2019-04-18T11:16:21.702Z,24.30
2019-04-18T11:19:11.375Z,24.60
2019-04-18T11:21:59.227Z,24.70
2019-04-18T11:24:47.332Z,24.90
2019-04-18T11:27:35.425Z,25.10
2019-04-18T11:30:25.757Z,25.20
2019-04-18T11:33:12.931Z,25.40
2019-04-18T11:36:00.779Z,25.50
2019-04-18T11:38:48.939Z,25.70
2019-04-18T11:41:36.791Z,25.80
2019-04-18T11:44:25.685Z,25.90
2019-04-18T11:47:14.494Z,26.30
2019-04-18T11:56:11.982Z,26.50
2019-04-18T11:59:17.117Z,26.60
2019-04-18T12:08:12.179Z,26.60
2019-04-18T12:10:52.607Z,26.70
2019-04-18T12:13:33.504Z,26.80
2019-04-18T12:16:14.911Z,26.90
2019-04-18T12:18:56.149Z,27.20
2019-04-18T12:21:36.522Z,27.60
2019-04-18T12:24:17.830Z,27.90
2019-04-18T12:26:58.918Z,28.10
2019-04-18T12:29:39.631Z,28.00
2019-04-18T12:32:20.223Z,28.20
2019-04-18T12:37:57.943Z,28.50
2019-04-18T12:43:24.867Z,28.70
2019-04-18T12:46:06.055Z,28.30
2019-04-18T12:48:46.615Z,28.10
2019-04-18T12:51:27.148Z,28.00
2019-04-18T12:54:08.919Z,27.70
2019-04-18T12:56:49.753Z,27.60
2019-04-18T12:59:30.577Z,27.90
2019-04-18T13:02:11.498Z,28.00
2019-04-18T13:04:52.091Z,28.00
2019-04-18T13:07:38.376Z,27.70
2019-04-18T13:10:37.936Z,27.70
2019-04-18T13:13:44.875Z,27.70
2019-04-18T13:19:31.193Z,28.00
2019-04-18T13:22:19.039Z,28.00
2019-04-18T13:25:07.135Z,28.10
2019-04-18T13:27:54.987Z,27.80
2019-04-18T13:30:42.838Z,28.10
2019-04-18T13:33:30.733Z,28.10
2019-04-18T13:36:18.283Z,28.20
2019-04-18T13:41:43.968Z,28.40
2019-04-18T13:44:24.399Z,28.50
2019-04-18T13:49:50.754Z,28.90
2019-04-18T13:55:21.223Z,28.70
2019-04-18T13:58:02.348Z,28.50
2019-04-18T14:00:43.655Z,28.30
2019-04-18T14:03:24.115Z,27.90
2019-04-18T14:06:04.708Z,27.80
2019-04-18T14:08:45.302Z,28.00
2019-04-18T14:11:25.843Z,28.30
2019-04-18T14:14:06.256Z,28.60
2019-04-18T14:16:46.843Z,28.70
2019-04-18T14:19:27.788Z,28.60
2019-04-18T14:22:08.139Z,28.50
2019-04-18T14:24:48.440Z,28.70
2019-04-18T14:27:32.292Z,28.80
2019-04-18T14:30:13.966Z,28.50
2019-04-18T14:32:56.644Z,28.50
2019-04-18T14:35:38.039Z,28.30
2019-04-18T14:41:06.315Z,27.90
2019-04-18T14:43:46.890Z,28.10
2019-04-18T14:46:27.396Z,28.10
2019-04-18T14:49:08.379Z,28.20
2019-04-18T14:51:49.776Z,28.40
2019-04-18T14:54:31.007Z,28.10
2019-04-18T14:57:11.304Z,28.10
2019-04-18T14:59:52.231Z,28.20
2019-04-18T15:02:32.479Z,28.30
2019-04-18T15:05:16.684Z,28.20
2019-04-18T15:07:57.967Z,28.20
2019-04-18T15:10:39.775Z,28.10
2019-04-18T15:13:20.902Z,28.10
2019-04-18T15:16:01.411Z,28.20
2019-04-18T15:18:42.860Z,28.00
2019-04-18T15:21:23.974Z,27.80
2019-04-18T15:24:04.898Z,28.00
2019-04-18T15:26:45.763Z,27.90
2019-04-18T15:29:26.080Z,27.80
2019-04-18T15:32:06.903Z,27.60
2019-04-18T15:34:47.707Z,27.60
2019-04-18T15:37:29.135Z,27.50
2019-04-18T15:40:09.715Z,27.70
2019-04-18T15:42:50.375Z,27.70
2019-04-18T15:48:46.147Z,27.20
2019-04-18T15:51:26.842Z,27.10
2019-04-18T15:54:09.331Z,27.10
2019-04-18T15:56:50.030Z,27.00
2019-04-18T15:59:31.123Z,26.70
2019-04-18T16:02:12.171Z,26.70
2019-04-18T16:04:53.063Z,26.70
2019-04-18T16:07:34.875Z,26.60
2019-04-18T16:10:19.384Z,26.60
2019-04-18T16:12:58.924Z,26.70
2019-04-18T16:15:40.395Z,26.70
2019-04-18T16:18:21.683Z,26.70
2019-04-18T16:21:02.315Z,26.30
2019-04-18T16:23:45.247Z,26.20
2019-04-18T16:29:12.335Z,26.30
2019-04-18T16:34:42.559Z,26.10
2019-04-18T16:49:02.201Z,25.20
2019-04-18T16:51:44.298Z,25.00
2019-04-18T16:54:25.015Z,24.50
2019-04-18T16:57:05.508Z,24.30
2019-04-18T16:59:46.320Z,24.20
2019-04-18T17:02:27.742Z,24.10
2019-04-18T17:05:08.771Z,24.00
2019-04-18T17:07:49.838Z,23.80
2019-04-18T17:10:30.511Z,23.50
2019-04-18T17:13:11.091Z,23.30
2019-04-18T17:15:52.506Z,23.10
2019-04-18T17:18:34.231Z,23.00
2019-04-18T17:23:56.938Z,22.80
2019-04-18T17:26:38.060Z,22.70
2019-04-18T17:29:18.495Z,22.60
2019-04-18T17:31:58.856Z,22.50
2019-04-18T17:34:46.991Z,22.40
2019-04-18T17:37:36.096Z,22.40
2019-04-18T17:40:20.050Z,22.30
2019-04-18T17:45:29.330Z,22.20
2019-04-18T17:48:11.476Z,22.10
2019-04-18T17:56:31.635Z,21.90
2019-04-18T17:59:06.798Z,21.90
2019-04-18T18:07:22.084Z,21.60
2019-04-18T18:12:52.378Z,21.40
2019-04-18T18:15:38.799Z,21.40
2019-04-18T18:29:24.258Z,21.10
2019-04-18T18:54:41.803Z,20.50
2019-04-18T19:00:06.315Z,20.30
2019-04-18T19:02:52.881Z,20.20
2019-04-18T19:05:42.947Z,20.20
2019-04-18T19:08:21.716Z,20.10
2019-04-18T19:11:12.868Z,20.10
2019-04-18T19:13:51.882Z,20.00
2019-04-18T19:16:31.796Z,20.00
2019-04-18T19:19:01.473Z,19.90
2019-04-18T19:21:47.074Z,19.80
2019-04-18T19:24:25.165Z,19.80
2019-04-18T19:27:19.935Z,19.70
2019-04-18T19:30:00.745Z,19.70
2019-04-18T19:32:34.124Z,19.50
2019-04-18T19:35:34.982Z,19.50
2019-04-18T19:38:19.427Z,19.40
2019-04-18T19:41:02.274Z,19.30
2019-04-18T19:43:24.544Z,19.20
2019-04-18T19:46:04.851Z,19.10
2019-04-18T19:48:46.724Z,19.10
2019-04-18T19:51:33.000Z,19.00
2019-04-18T19:54:10.356Z,19.00
2019-04-18T19:56:51.578Z,18.90
2019-04-18T19:59:33.438Z,18.80
2019-04-18T20:02:14.571Z,18.70
2019-04-18T20:04:57.653Z,18.70
2019-04-18T20:07:47.800Z,18.70
2019-04-18T20:10:33.827Z,18.60
2019-04-18T20:13:12.450Z,18.60
2019-04-18T20:15:46.464Z,18.50
2019-04-18T20:18:27.891Z,18.50
2019-04-18T20:21:09.783Z,18.40
2019-04-18T20:23:51.541Z,18.30
2019-04-18T20:26:38.697Z,18.30
2019-04-18T20:29:24.439Z,18.20
2019-04-18T20:31:58.373Z,18.20
2019-04-18T20:34:45.938Z,18.10
2019-04-18T20:37:36.593Z,18.10
2019-04-18T20:40:32.088Z,18.10
2019-04-18T20:42:56.920Z,18.10
2019-04-18T20:45:41.585Z,18.00
2019-04-18T20:48:25.549Z,18.00
2019-04-18T20:51:01.504Z,18.00
2019-04-18T20:53:58.521Z,17.90
2019-04-18T20:56:19.877Z,17.90
2019-04-18T20:59:08.503Z,17.90
2019-04-18T21:01:42.800Z,17.80
2019-04-18T21:04:24.364Z,17.80
2019-04-18T21:07:19.591Z,17.70
2019-04-18T21:09:59.705Z,17.70
2019-04-18T21:12:31.782Z,17.70
2019-04-18T21:15:12.512Z,17.60
2019-04-18T21:17:57.007Z,17.60
2019-04-18T21:20:35.565Z,17.50
2019-04-18T21:23:17.081Z,17.50
2019-04-18T21:25:58.004Z,17.50
2019-04-18T21:28:41.143Z,17.40
2019-04-18T21:31:22.007Z,17.40
2019-04-18T21:34:08.622Z,17.40
2019-04-18T21:39:31.757Z,17.30
2019-04-18T21:42:10.354Z,17.20
2019-04-18T21:44:52.869Z,17.20
2019-04-18T21:47:35.494Z,17.10
2019-04-18T21:50:22.463Z,17.10
2019-04-18T21:52:58.976Z,17.00
2019-04-18T21:55:40.433Z,17.00
2019-04-18T21:58:41.318Z,16.90
2019-04-18T22:01:06.816Z,16.80
2019-04-18T22:06:35.719Z,16.80
2019-04-18T22:12:02.575Z,16.70
2019-04-18T22:17:22.659Z,16.60
2019-04-18T22:20:05.284Z,16.50
2019-04-18T22:28:18.802Z,16.50
2019-04-18T22:31:00.344Z,16.40
2019-04-18T22:33:44.086Z,16.40
2019-04-18T22:36:27.678Z,16.30
2019-04-18T22:39:10.430Z,16.30
2019-04-18T22:41:50.291Z,16.30
2019-04-18T22:44:31.681Z,16.30
2019-04-18T22:47:14.708Z,16.20
2019-04-18T22:49:56.320Z,16.20
2019-04-18T22:52:37.977Z,16.20
2019-04-18T22:55:21.544Z,16.10
2019-04-18T22:58:08.775Z,16.10
2019-04-18T23:00:45.212Z,16.10
2019-04-18T23:03:27.462Z,16.10
2019-04-18T23:08:58.164Z,16.00
2019-04-18T23:11:34.676Z,15.90
2019-04-18T23:14:17.035Z,15.90
2019-04-18T23:17:00.962Z,15.80
2019-04-18T23:19:46.359Z,15.80
2019-04-18T23:22:24.341Z,15.70
2019-04-18T23:25:05.661Z,15.70
2019-04-18T23:27:46.283Z,15.60
2019-04-18T23:30:29.493Z,15.50
2019-04-18T23:33:15.400Z,15.50
2019-04-18T23:35:56.556Z,15.40
2019-04-18T23:38:40.780Z,15.40
2019-04-18T23:41:20.439Z,15.30
2019-04-18T23:44:02.938Z,15.30
2019-04-18T23:46:43.869Z,15.30
2019-04-18T23:49:27.540Z,15.20
2019-04-18T23:52:10.448Z,15.10
2019-04-18T23:54:49.793Z,15.10
2019-04-18T23:57:32.050Z,15.00
